sensor_id;sensor_type;location;lat;lon;timestamp;pressure;altitude;pressure_sealevel;temperature;humidity
76358;BME280;65185;21.060;105.826;2023-08-07T00:01:36;99848.94;;;27.89;100.00
76358;BME280;65185;21.060;105.826;2023-08-07T00:04:03;99843.75;;;27.87;99.45
76358;BME280;65185;21.060;105.826;2023-08-07T00:06:29;99847.97;;;27.90;99.57
76358;BME280;65185;21.060;105.826;2023-08-07T00:08:56;99852.19;;;27.92;99.66
76358;BME280;65185;21.060;105.826;2023-08-07T00:11:22;99847.84;;;27.91;99.70
76358;BME280;65185;21.060;105.826;2023-08-07T00:13:49;99846.84;;;27.92;99.49
76358;BME280;65185;21.060;105.826;2023-08-07T00:16:16;99849.28;;;27.95;100.00
76358;BME280;65185;21.060;105.826;2023-08-07T00:18:43;99853.47;;;27.98;100.00
76358;BME280;65185;21.060;105.826;2023-08-07T00:21:09;99849.72;;;28.00;100.00
76358;BME280;65185;21.060;105.826;2023-08-07T00:23:36;99849.28;;;28.05;100.00
76358;BME280;65185;21.060;105.826;2023-08-07T00:26:03;99855.31;;;28.07;100.00
76358;BME280;65185;21.060;105.826;2023-08-07T00:28:30;99855.19;;;28.08;100.00
76358;BME280;65185;21.060;105.826;2023-08-07T00:30:57;99859.53;;;28.09;100.00
76358;BME280;65185;21.060;105.826;2023-08-07T00:33:23;99863.84;;;28.10;100.00
76358;BME280;65185;21.060;105.826;2023-08-07T00:35:50;99863.84;;;28.10;100.00
76358;BME280;65185;21.060;105.826;2023-08-07T00:38:17;99859.13;;;28.14;100.00
76358;BME280;65185;21.060;105.826;2023-08-07T00:40:43;99864.31;;;28.15;100.00
76358;BME280;65185;21.060;105.826;2023-08-07T00:43:10;99865.00;;;28.17;100.00
76358;BME280;65185;21.060;105.826;2023-08-07T00:45:42;99863.88;;;28.20;100.00
76358;BME280;65185;21.060;105.826;2023-08-07T00:48:10;99875.22;;;28.22;100.00
76358;BME280;65185;21.060;105.826;2023-08-07T00:50:39;99867.25;;;28.22;100.00
76358;BME280;65185;21.060;105.826;2023-08-07T00:53:07;99874.13;;;28.24;100.00
76358;BME280;65185;21.060;105.826;2023-08-07T00:55:33;99881.81;;;28.27;100.00
76358;BME280;65185;21.060;105.826;2023-08-07T00:58:01;99880.00;;;28.28;100.00
76358;BME280;65185;21.060;105.826;2023-08-07T01:00:29;99881.56;;;28.30;100.00
76358;BME280;65185;21.060;105.826;2023-08-07T01:02:56;99889.28;;;28.33;100.00
76358;BME280;65185;21.060;105.826;2023-08-07T01:05:24;99882.13;;;28.34;100.00
76358;BME280;65185;21.060;105.826;2023-08-07T01:07:55;99888.13;;;28.36;100.00
76358;BME280;65185;21.060;105.826;2023-08-07T01:13:20;99888.72;;;28.39;100.00
76358;BME280;65185;21.060;105.826;2023-08-07T01:15:53;99890.41;;;28.40;100.00
76358;BME280;65185;21.060;105.826;2023-08-07T01:18:22;99895.44;;;28.43;100.00
76358;BME280;65185;21.060;105.826;2023-08-07T01:20:49;99889.13;;;28.44;98.94
76358;BME280;65185;21.060;105.826;2023-08-07T01:23:16;99894.88;;;28.49;99.59
76358;BME280;65185;21.060;105.826;2023-08-07T01:25:43;99898.25;;;28.51;98.89
76358;BME280;65185;21.060;105.826;2023-08-07T01:28:19;99897.88;;;28.56;98.70
76358;BME280;65185;21.060;105.826;2023-08-07T01:30:55;99902.75;;;28.61;98.58
76358;BME280;65185;21.060;105.826;2023-08-07T01:33:39;99900.81;;;28.63;94.66
76358;BME280;65185;21.060;105.826;2023-08-07T01:36:10;99898.53;;;28.68;93.97
76358;BME280;65185;21.060;105.826;2023-08-07T01:38:38;99898.41;;;28.69;93.56
76358;BME280;65185;21.060;105.826;2023-08-07T01:41:05;99895.63;;;28.71;94.86
76358;BME280;65185;21.060;105.826;2023-08-07T01:43:32;99893.66;;;28.73;95.10
76358;BME280;65185;21.060;105.826;2023-08-07T01:45:59;99899.81;;;28.73;94.60
76358;BME280;65185;21.060;105.826;2023-08-07T01:48:26;99897.13;;;28.73;94.49
76358;BME280;65185;21.060;105.826;2023-08-07T01:50:53;99903.16;;;28.75;94.23
76358;BME280;65185;21.060;105.826;2023-08-07T01:53:20;99898.53;;;28.77;92.58
76358;BME280;65185;21.060;105.826;2023-08-07T01:55:47;99892.09;;;28.80;93.62
76358;BME280;65185;21.060;105.826;2023-08-07T01:58:14;99899.38;;;28.78;92.17
76358;BME280;65185;21.060;105.826;2023-08-07T02:00:40;99902.75;;;28.80;92.30
76358;BME280;65185;21.060;105.826;2023-08-07T02:03:07;99902.47;;;28.83;92.44
76358;BME280;65185;21.060;105.826;2023-08-07T02:05:34;99902.31;;;28.84;93.05
76358;BME280;65185;21.060;105.826;2023-08-07T02:08:01;99907.09;;;28.90;92.88
76358;BME280;65185;21.060;105.826;2023-08-07T02:10:27;99903.31;;;28.93;92.30
76358;BME280;65185;21.060;105.826;2023-08-07T02:12:57;99905.81;;;28.94;91.85
76358;BME280;65185;21.060;105.826;2023-08-07T02:15:25;99906.78;;;29.03;91.65
76358;BME280;65185;21.060;105.826;2023-08-07T02:17:51;99908.19;;;29.07;91.29
76358;BME280;65185;21.060;105.826;2023-08-07T02:20:18;99900.72;;;29.10;91.21
76358;BME280;65185;21.060;105.826;2023-08-07T02:22:45;99907.50;;;29.14;91.60
76358;BME280;65185;21.060;105.826;2023-08-07T02:25:12;99909.00;;;29.17;91.34
76358;BME280;65185;21.060;105.826;2023-08-07T02:27:38;99906.06;;;29.20;89.61
76358;BME280;65185;21.060;105.826;2023-08-07T02:30:06;99903.81;;;29.25;87.35
76358;BME280;65185;21.060;105.826;2023-08-07T02:32:33;99897.88;;;29.31;86.29
76358;BME280;65185;21.060;105.826;2023-08-07T02:34:59;99895.03;;;29.42;87.89
76358;BME280;65185;21.060;105.826;2023-08-07T02:37:26;99891.47;;;29.51;85.84
76358;BME280;65185;21.060;105.826;2023-08-07T02:39:53;99887.22;;;29.58;85.00
76358;BME280;65185;21.060;105.826;2023-08-07T02:42:20;99892.69;;;29.66;85.45
76358;BME280;65185;21.060;105.826;2023-08-07T02:44:46;99897.44;;;29.72;85.85
76358;BME280;65185;21.060;105.826;2023-08-07T02:47:13;99892.66;;;29.76;86.32
76358;BME280;65185;21.060;105.826;2023-08-07T02:49:40;99887.88;;;29.79;82.46
76358;BME280;65185;21.060;105.826;2023-08-07T02:52:07;99887.25;;;29.85;83.28
76358;BME280;65185;21.060;105.826;2023-08-07T02:54:33;99889.03;;;29.94;82.19
76358;BME280;65185;21.060;105.826;2023-08-07T02:57:00;99884.91;;;30.00;81.84
76358;BME280;65185;21.060;105.826;2023-08-07T02:59:27;99884.84;;;30.09;81.08
76358;BME280;65185;21.060;105.826;2023-08-07T03:01:53;99885.63;;;30.19;80.00
76358;BME280;65185;21.060;105.826;2023-08-07T03:04:20;99886.75;;;30.26;79.58
76358;BME280;65185;21.060;105.826;2023-08-07T03:06:47;99889.09;;;30.29;78.95
76358;BME280;65185;21.060;105.826;2023-08-07T03:09:13;99891.59;;;30.31;79.03
76358;BME280;65185;21.060;105.826;2023-08-07T03:11:40;99897.13;;;30.29;79.28
76358;BME280;65185;21.060;105.826;2023-08-07T03:14:07;99896.25;;;30.29;80.21
76358;BME280;65185;21.060;105.826;2023-08-07T03:16:34;99903.31;;;30.30;79.39
76358;BME280;65185;21.060;105.826;2023-08-07T03:19:00;99899.94;;;30.28;79.03
76358;BME280;65185;21.060;105.826;2023-08-07T03:21:27;99889.53;;;30.25;80.52
76358;BME280;65185;21.060;105.826;2023-08-07T03:23:54;99898.28;;;30.27;81.04
76358;BME280;65185;21.060;105.826;2023-08-07T03:26:20;99896.56;;;30.26;79.77
76358;BME280;65185;21.060;105.826;2023-08-07T03:28:47;99895.69;;;30.25;80.70
76358;BME280;65185;21.060;105.826;2023-08-07T03:31:15;99889.41;;;30.26;81.29
76358;BME280;65185;21.060;105.826;2023-08-07T03:33:41;99889.81;;;30.22;80.82
76358;BME280;65185;21.060;105.826;2023-08-07T03:36:08;99899.53;;;30.23;80.43
76358;BME280;65185;21.060;105.826;2023-08-07T03:38:38;99889.69;;;30.23;80.27
76358;BME280;65185;21.060;105.826;2023-08-07T03:41:04;99895.03;;;30.23;79.08
76358;BME280;65185;21.060;105.826;2023-08-07T03:43:31;99889.53;;;30.25;79.33
76358;BME280;65185;21.060;105.826;2023-08-07T03:45:58;99886.56;;;30.28;79.81
76358;BME280;65185;21.060;105.826;2023-08-07T03:48:25;99884.44;;;30.31;80.15
76358;BME280;65185;21.060;105.826;2023-08-07T03:50:51;99886.13;;;30.32;80.77
76358;BME280;65185;21.060;105.826;2023-08-07T03:53:18;99879.63;;;30.35;80.58
76358;BME280;65185;21.060;105.826;2023-08-07T03:55:50;99878.78;;;30.34;80.12
76358;BME280;65185;21.060;105.826;2023-08-07T03:58:17;99878.66;;;30.36;79.23
76358;BME280;65185;21.060;105.826;2023-08-07T04:00:44;99875.81;;;30.37;81.05
76358;BME280;65185;21.060;105.826;2023-08-07T04:03:10;99873.69;;;30.41;82.15
76358;BME280;65185;21.060;105.826;2023-08-07T04:05:37;99875.50;;;30.40;82.83
76358;BME280;65185;21.060;105.826;2023-08-07T04:08:04;99863.66;;;30.43;84.02
76358;BME280;65185;21.060;105.826;2023-08-07T04:10:31;99858.84;;;30.47;83.34
76358;BME280;65185;21.060;105.826;2023-08-07T04:12:57;99860.84;;;30.44;82.88
76358;BME280;65185;21.060;105.826;2023-08-07T04:15:24;99860.50;;;30.48;82.38
76358;BME280;65185;21.060;105.826;2023-08-07T04:17:51;99853.34;;;30.48;81.29
76358;BME280;65185;21.060;105.826;2023-08-07T04:20:18;99850.22;;;30.53;81.99
76358;BME280;65185;21.060;105.826;2023-08-07T04:22:46;99846.22;;;30.57;80.62
76358;BME280;65185;21.060;105.826;2023-08-07T04:25:13;99840.88;;;30.57;79.03
76358;BME280;65185;21.060;105.826;2023-08-07T04:27:39;99846.91;;;30.59;81.08
76358;BME280;65185;21.060;105.826;2023-08-07T04:30:06;99846.09;;;30.58;81.57
76358;BME280;65185;21.060;105.826;2023-08-07T04:32:33;99843.25;;;30.60;81.31
76358;BME280;65185;21.060;105.826;2023-08-07T04:35:00;99849.28;;;30.62;82.66
76358;BME280;65185;21.060;105.826;2023-08-07T04:37:27;99842.25;;;30.61;82.52
76358;BME280;65185;21.060;105.826;2023-08-07T04:39:53;99834.06;;;30.62;81.74
76358;BME280;65185;21.060;105.826;2023-08-07T04:42:22;99832.91;;;30.65;81.06
76358;BME280;65185;21.060;105.826;2023-08-07T04:44:49;99828.25;;;30.67;81.40
76358;BME280;65185;21.060;105.826;2023-08-07T04:47:16;99821.91;;;30.68;81.13
76358;BME280;65185;21.060;105.826;2023-08-07T04:49:42;99828.09;;;30.68;81.44
76358;BME280;65185;21.060;105.826;2023-08-07T04:52:09;99819.38;;;30.66;80.47
76358;BME280;65185;21.060;105.826;2023-08-07T04:54:36;99824.22;;;30.63;78.06
76358;BME280;65185;21.060;105.826;2023-08-07T04:57:02;99817.34;;;30.60;77.96
76358;BME280;65185;21.060;105.826;2023-08-07T04:59:29;99817.50;;;30.59;78.18
76358;BME280;65185;21.060;105.826;2023-08-07T05:01:57;99818.34;;;30.59;77.80
76358;BME280;65185;21.060;105.826;2023-08-07T05:04:24;99815.66;;;30.59;77.54
76358;BME280;65185;21.060;105.826;2023-08-07T05:06:51;99807.81;;;30.58;77.02
76358;BME280;65185;21.060;105.826;2023-08-07T05:09:17;99806.09;;;30.57;77.63
76358;BME280;65185;21.060;105.826;2023-08-07T05:11:47;99803.44;;;30.57;77.37
76358;BME280;65185;21.060;105.826;2023-08-07T05:14:14;99805.97;;;30.58;77.60
76358;BME280;65185;21.060;105.826;2023-08-07T05:16:46;99800.47;;;30.60;77.45
76358;BME280;65185;21.060;105.826;2023-08-07T05:19:12;99795.81;;;30.62;79.15
76358;BME280;65185;21.060;105.826;2023-08-07T05:21:39;99793.13;;;30.62;80.06
76358;BME280;65185;21.060;105.826;2023-08-07T05:24:08;99789.78;;;30.60;80.41
76358;BME280;65185;21.060;105.826;2023-08-07T05:26:35;99782.59;;;30.60;80.59
76358;BME280;65185;21.060;105.826;2023-08-07T05:29:01;99789.94;;;30.58;80.47
76358;BME280;65185;21.060;105.826;2023-08-07T05:31:30;99790.91;;;30.57;79.62
76358;BME280;65185;21.060;105.826;2023-08-07T05:33:57;99782.72;;;30.59;80.50
76358;BME280;65185;21.060;105.826;2023-08-07T05:36:24;99785.41;;;30.59;79.18
76358;BME280;65185;21.060;105.826;2023-08-07T05:38:50;99776.69;;;30.57;79.33
76358;BME280;65185;21.060;105.826;2023-08-07T05:41:17;99777.53;;;30.57;79.50
76358;BME280;65185;21.060;105.826;2023-08-07T05:43:45;99767.69;;;30.58;78.89
76358;BME280;65185;21.060;105.826;2023-08-07T05:46:12;99766.84;;;30.57;78.99
76358;BME280;65185;21.060;105.826;2023-08-07T05:48:42;99765.88;;;30.58;79.74
76358;BME280;65185;21.060;105.826;2023-08-07T05:51:26;99757.31;;;30.55;80.74
76358;BME280;65185;21.060;105.826;2023-08-07T05:53:52;99754.94;;;30.52;80.09
76358;BME280;65185;21.060;105.826;2023-08-07T05:56:19;99753.28;;;30.51;79.85
76358;BME280;65185;21.060;105.826;2023-08-07T05:58:46;99755.94;;;30.51;80.71
76358;BME280;65185;21.060;105.826;2023-08-07T06:01:13;99751.56;;;30.50;81.59
76358;BME280;65185;21.060;105.826;2023-08-07T06:03:43;99756.25;;;30.48;81.97
76358;BME280;65185;21.060;105.826;2023-08-07T06:06:10;99747.25;;;30.49;80.31
76358;BME280;65185;21.060;105.826;2023-08-07T06:08:36;99754.25;;;30.50;77.92
76358;BME280;65185;21.060;105.826;2023-08-07T06:11:03;99747.25;;;30.49;77.03
76358;BME280;65185;21.060;105.826;2023-08-07T06:13:31;99746.41;;;30.48;76.43
76358;BME280;65185;21.060;105.826;2023-08-07T06:15:58;99747.25;;;30.49;76.46
76358;BME280;65185;21.060;105.826;2023-08-07T06:18:25;99746.41;;;30.48;75.95
76358;BME280;65185;21.060;105.826;2023-08-07T06:20:52;99743.72;;;30.48;75.73
76358;BME280;65185;21.060;105.826;2023-08-07T06:23:18;99743.56;;;30.50;75.68
76358;BME280;65185;21.060;105.826;2023-08-07T06:25:45;99741.56;;;30.52;75.20
76358;BME280;65185;21.060;105.826;2023-08-07T06:28:12;99740.44;;;30.54;75.29
76358;BME280;65185;21.060;105.826;2023-08-07T06:30:39;99739.94;;;30.59;75.11
76358;BME280;65185;21.060;105.826;2023-08-07T06:33:05;99733.59;;;30.60;76.36
76358;BME280;65185;21.060;105.826;2023-08-07T06:35:38;99732.44;;;30.62;75.82
76358;BME280;65185;21.060;105.826;2023-08-07T06:38:05;99731.78;;;30.60;76.17
76358;BME280;65185;21.060;105.826;2023-08-07T06:40:35;99727.09;;;30.62;76.06
76358;BME280;65185;21.060;105.826;2023-08-07T06:43:02;99728.63;;;30.65;75.40
76358;BME280;65185;21.060;105.826;2023-08-07T06:45:29;99721.44;;;30.65;76.16
76358;BME280;65185;21.060;105.826;2023-08-07T06:47:56;99721.44;;;30.65;76.48
76358;BME280;65185;21.060;105.826;2023-08-07T06:50:23;99713.59;;;30.64;78.09
76358;BME280;65185;21.060;105.826;2023-08-07T06:52:50;99714.56;;;30.63;79.17
76358;BME280;65185;21.060;105.826;2023-08-07T06:55:17;99704.88;;;30.62;79.23
76358;BME280;65185;21.060;105.826;2023-08-07T06:57:45;99708.22;;;30.64;79.71
76358;BME280;65185;21.060;105.826;2023-08-07T07:00:12;99708.22;;;30.64;78.74
76358;BME280;65185;21.060;105.826;2023-08-07T07:02:39;99707.06;;;30.66;78.37
76358;BME280;65185;21.060;105.826;2023-08-07T07:05:06;99701.72;;;30.66;77.77
76358;BME280;65185;21.060;105.826;2023-08-07T07:07:33;99697.22;;;30.67;77.78
76358;BME280;65185;21.060;105.826;2023-08-07T07:09:59;99695.91;;;30.71;78.24
76358;BME280;65185;21.060;105.826;2023-08-07T07:12:30;99698.56;;;30.71;78.62
76358;BME280;65185;21.060;105.826;2023-08-07T07:14:56;99692.22;;;30.72;78.68
76358;BME280;65185;21.060;105.826;2023-08-07T07:17:23;99687.72;;;30.72;78.82
76358;BME280;65185;21.060;105.826;2023-08-07T07:19:50;99693.41;;;30.77;78.39
76358;BME280;65185;21.060;105.826;2023-08-07T07:22:23;99690.44;;;30.80;76.99
76358;BME280;65185;21.060;105.826;2023-08-07T07:24:50;99683.13;;;30.82;77.18
76358;BME280;65185;21.060;105.826;2023-08-07T07:27:28;99687.28;;;30.85;77.24
76358;BME280;65185;21.060;105.826;2023-08-07T07:29:55;99680.63;;;30.89;74.61
76358;BME280;65185;21.060;105.826;2023-08-07T07:32:22;99683.31;;;30.89;75.18
76358;BME280;65185;21.060;105.826;2023-08-07T07:34:49;99682.28;;;30.90;75.47
76358;BME280;65185;21.060;105.826;2023-08-07T07:37:16;99684.97;;;30.90;75.24
76358;BME280;65185;21.060;105.826;2023-08-07T07:39:43;99681.13;;;30.92;75.03
76358;BME280;65185;21.060;105.826;2023-08-07T07:42:10;99685.84;;;30.98;73.58
76358;BME280;65185;21.060;105.826;2023-08-07T07:44:37;99683.00;;;31.00;72.31
76358;BME280;65185;21.060;105.826;2023-08-07T07:47:06;99680.00;;;30.95;72.09
76358;BME280;65185;21.060;105.826;2023-08-07T07:49:33;99684.50;;;30.94;73.27
76358;BME280;65185;21.060;105.826;2023-08-07T07:52:00;99674.78;;;30.93;74.18
76358;BME280;65185;21.060;105.826;2023-08-07T07:54:28;99673.47;;;30.97;74.92
76358;BME280;65185;21.060;105.826;2023-08-07T07:56:56;99670.44;;;30.92;75.61
76358;BME280;65185;21.060;105.826;2023-08-07T07:59:22;99670.78;;;30.89;75.53
76358;BME280;65185;21.060;105.826;2023-08-07T08:01:49;99663.44;;;30.91;75.80
76358;BME280;65185;21.060;105.826;2023-08-07T08:04:17;99664.06;;;30.85;76.24
76358;BME280;65185;21.060;105.826;2023-08-07T08:06:45;99658.34;;;30.80;76.45
76358;BME280;65185;21.060;105.826;2023-08-07T08:09:14;99660.03;;;30.81;76.24
76358;BME280;65185;21.060;105.826;2023-08-07T08:11:42;99651.47;;;30.78;77.20
76358;BME280;65185;21.060;105.826;2023-08-07T08:14:09;99653.69;;;30.82;76.47
76358;BME280;65185;21.060;105.826;2023-08-07T08:16:36;99653.78;;;30.81;76.40
76358;BME280;65185;21.060;105.826;2023-08-07T08:19:03;99646.31;;;30.84;78.76
76358;BME280;65185;21.060;105.826;2023-08-07T08:21:30;99637.47;;;30.84;75.85
76358;BME280;65185;21.060;105.826;2023-08-07T08:23:57;99641.31;;;30.81;75.19
76358;BME280;65185;21.060;105.826;2023-08-07T08:26:24;99635.06;;;30.81;75.24
76358;BME280;65185;21.060;105.826;2023-08-07T08:28:50;99636.78;;;30.82;75.12
76358;BME280;65185;21.060;105.826;2023-08-07T08:31:17;99645.66;;;30.82;75.16
76358;BME280;65185;21.060;105.826;2023-08-07T08:33:47;99640.31;;;30.82;75.04
76358;BME280;65185;21.060;105.826;2023-08-07T08:36:14;99634.41;;;30.79;74.63
76358;BME280;65185;21.060;105.826;2023-08-07T08:38:44;99640.75;;;30.78;75.75
76358;BME280;65185;21.060;105.826;2023-08-07T08:41:14;99642.41;;;30.79;75.62
76358;BME280;65185;21.060;105.826;2023-08-07T08:43:43;99628.41;;;30.77;75.18
76358;BME280;65185;21.060;105.826;2023-08-07T08:46:14;99633.19;;;30.73;75.66
76358;BME280;65185;21.060;105.826;2023-08-07T08:48:49;99635.56;;;30.76;75.80
76358;BME280;65185;21.060;105.826;2023-08-07T08:51:26;99628.41;;;30.77;75.22
76358;BME280;65185;21.060;105.826;2023-08-07T08:53:56;99623.88;;;30.77;75.39
76358;BME280;65185;21.060;105.826;2023-08-07T08:56:24;99622.88;;;30.78;76.55
76358;BME280;65185;21.060;105.826;2023-08-07T08:58:51;99618.34;;;30.79;75.41
76358;BME280;65185;21.060;105.826;2023-08-07T09:01:19;99616.84;;;30.76;74.41
76358;BME280;65185;21.060;105.826;2023-08-07T09:03:46;99613.00;;;30.79;75.55
76358;BME280;65185;21.060;105.826;2023-08-07T09:06:14;99620.03;;;30.80;77.24
76358;BME280;65185;21.060;105.826;2023-08-07T09:08:43;99615.03;;;30.77;77.46
76358;BME280;65185;21.060;105.826;2023-08-07T09:11:13;99625.72;;;30.77;79.29
76358;BME280;65185;21.060;105.826;2023-08-07T09:13:41;99626.53;;;30.77;79.65
76358;BME280;65185;21.060;105.826;2023-08-07T09:16:09;99628.41;;;30.77;78.96
76358;BME280;65185;21.060;105.826;2023-08-07T09:18:37;99634.03;;;30.74;79.47
76358;BME280;65185;21.060;105.826;2023-08-07T09:21:04;99640.56;;;30.71;80.32
76358;BME280;65185;21.060;105.826;2023-08-07T09:23:31;99641.72;;;30.69;80.49
76358;BME280;65185;21.060;105.826;2023-08-07T09:26:02;99651.06;;;30.65;80.81
76358;BME280;65185;21.060;105.826;2023-08-07T09:28:31;99650.53;;;30.61;80.99
76358;BME280;65185;21.060;105.826;2023-08-07T09:30:59;99651.69;;;30.59;80.72
76358;BME280;65185;21.060;105.826;2023-08-07T09:33:29;99654.38;;;30.59;79.74
76358;BME280;65185;21.060;105.826;2023-08-07T09:36:01;99655.53;;;30.56;80.90
76358;BME280;65185;21.060;105.826;2023-08-07T09:38:31;99660.38;;;30.53;81.85
76358;BME280;65185;21.060;105.826;2023-08-07T09:40:59;99661.34;;;30.52;83.20
76358;BME280;65185;21.060;105.826;2023-08-07T09:43:26;99660.00;;;30.48;83.01
76358;BME280;65185;21.060;105.826;2023-08-07T09:46:02;99671.00;;;30.44;84.10
76358;BME280;65185;21.060;105.826;2023-08-07T09:48:29;99667.50;;;30.44;82.33
76358;BME280;65185;21.060;105.826;2023-08-07T09:51:03;99670.81;;;30.38;81.87
76358;BME280;65185;21.060;105.826;2023-08-07T09:53:30;99668.66;;;30.41;81.98
76358;BME280;65185;21.060;105.826;2023-08-07T09:55:58;99665.16;;;30.41;82.47
76358;BME280;65185;21.060;105.826;2023-08-07T09:58:26;99666.00;;;30.41;83.27
76358;BME280;65185;21.060;105.826;2023-08-07T10:00:55;99664.63;;;30.37;83.45
76358;BME280;65185;21.060;105.826;2023-08-07T10:03:28;99665.78;;;30.35;84.31
76358;BME280;65185;21.060;105.826;2023-08-07T10:05:57;99680.44;;;30.31;84.68
76358;BME280;65185;21.060;105.826;2023-08-07T10:08:25;99675.25;;;30.29;85.14
76358;BME280;65185;21.060;105.826;2023-08-07T10:10:52;99664.72;;;30.28;85.40
76358;BME280;65185;21.060;105.826;2023-08-07T10:13:19;99667.00;;;30.23;85.88
76358;BME280;65185;21.060;105.826;2023-08-07T10:15:46;99676.88;;;30.22;86.48
76358;BME280;65185;21.060;105.826;2023-08-07T10:18:14;99672.38;;;30.23;88.63
76358;BME280;65185;21.060;105.826;2023-08-07T10:20:40;99665.81;;;30.17;88.04
76358;BME280;65185;21.060;105.826;2023-08-07T10:23:10;99668.47;;;30.17;88.03
76358;BME280;65185;21.060;105.826;2023-08-07T10:25:40;99671.44;;;30.14;87.94
76358;BME280;65185;21.060;105.826;2023-08-07T10:28:12;99675.28;;;30.12;88.32
76358;BME280;65185;21.060;105.826;2023-08-07T10:30:41;99679.78;;;30.11;88.52
76358;BME280;65185;21.060;105.826;2023-08-07T10:33:09;99682.09;;;30.06;88.52
76358;BME280;65185;21.060;105.826;2023-08-07T10:35:37;99676.91;;;30.05;89.50
76358;BME280;65185;21.060;105.826;2023-08-07T10:38:08;99675.22;;;30.04;89.09
76358;BME280;65185;21.060;105.826;2023-08-07T10:41:01;99685.06;;;30.03;89.50
76358;BME280;65185;21.060;105.826;2023-08-07T10:43:29;99685.53;;;29.99;90.33
76358;BME280;65185;21.060;105.826;2023-08-07T10:46:16;99686.41;;;29.99;90.65
76358;BME280;65185;21.060;105.826;2023-08-07T10:48:46;99692.88;;;29.97;88.98
76358;BME280;65185;21.060;105.826;2023-08-07T10:51:14;99693.88;;;29.96;87.26
76358;BME280;65185;21.060;105.826;2023-08-07T10:53:44;99702.03;;;29.94;89.17
76358;BME280;65185;21.060;105.826;2023-08-07T10:56:31;99691.81;;;29.90;88.99
76358;BME280;65185;21.060;105.826;2023-08-07T10:59:07;99690.81;;;29.91;91.18
76358;BME280;65185;21.060;105.826;2023-08-07T11:04:06;99696.63;;;29.86;91.86
76358;BME280;65185;21.060;105.826;2023-08-07T11:06:35;99695.78;;;29.86;91.61
76358;BME280;65185;21.060;105.826;2023-08-07T11:09:04;99703.97;;;29.84;91.38
76358;BME280;65185;21.060;105.826;2023-08-07T11:11:47;99707.59;;;29.83;91.51
76358;BME280;65185;21.060;105.826;2023-08-07T11:14:16;99702.59;;;29.80;90.24
76358;BME280;65185;21.060;105.826;2023-08-07T11:16:44;99712.56;;;29.78;89.55
76358;BME280;65185;21.060;105.826;2023-08-07T11:19:14;99717.91;;;29.78;88.43
76358;BME280;65185;21.060;105.826;2023-08-07T11:21:42;99716.09;;;29.79;89.66
76358;BME280;65185;21.060;105.826;2023-08-07T11:24:13;99718.94;;;29.77;89.07
76358;BME280;65185;21.060;105.826;2023-08-07T11:26:41;99726.09;;;29.77;88.81
76358;BME280;65185;21.060;105.826;2023-08-07T11:29:23;99723.41;;;29.77;90.99
76358;BME280;65185;21.060;105.826;2023-08-07T11:31:51;99720.22;;;29.73;91.94
76358;BME280;65185;21.060;105.826;2023-08-07T11:34:18;99724.72;;;29.73;90.83
76358;BME280;65185;21.060;105.826;2023-08-07T11:36:46;99729.34;;;29.71;89.70
76358;BME280;65185;21.060;105.826;2023-08-07T11:39:14;99737.91;;;29.74;91.10
76358;BME280;65185;21.060;105.826;2023-08-07T11:41:42;99747.63;;;29.75;92.76
76358;BME280;65185;21.060;105.826;2023-08-07T11:44:10;99748.91;;;29.71;93.47
76358;BME280;65185;21.060;105.826;2023-08-07T11:46:37;99750.88;;;29.69;93.24
76358;BME280;65185;21.060;105.826;2023-08-07T11:49:04;99748.50;;;29.66;92.85
76358;BME280;65185;21.060;105.826;2023-08-07T11:51:32;99764.50;;;29.66;93.23
76358;BME280;65185;21.060;105.826;2023-08-07T11:53:59;99757.47;;;29.65;92.32
76358;BME280;65185;21.060;105.826;2023-08-07T11:56:26;99754.97;;;29.64;92.32
76358;BME280;65185;21.060;105.826;2023-08-07T11:58:54;99761.31;;;29.63;92.44
76358;BME280;65185;21.060;105.826;2023-08-07T12:01:23;99767.63;;;29.62;91.54
76358;BME280;65185;21.060;105.826;2023-08-07T12:03:51;99768.47;;;29.62;90.82
76358;BME280;65185;21.060;105.826;2023-08-07T12:06:19;99768.16;;;29.65;91.57
76358;BME280;65185;21.060;105.826;2023-08-07T12:08:49;99770.13;;;29.63;90.53
76358;BME280;65185;21.060;105.826;2023-08-07T12:11:20;99772.13;;;29.61;89.94
76358;BME280;65185;21.060;105.826;2023-08-07T12:13:47;99775.94;;;29.59;90.71
76358;BME280;65185;21.060;105.826;2023-08-07T12:16:15;99780.28;;;29.60;90.87
76358;BME280;65185;21.060;105.826;2023-08-07T12:18:49;99781.97;;;29.61;90.64
76358;BME280;65185;21.060;105.826;2023-08-07T12:21:21;99783.81;;;29.60;90.91
76358;BME280;65185;21.060;105.826;2023-08-07T12:23:54;99786.63;;;29.59;90.95
76358;BME280;65185;21.060;105.826;2023-08-07T12:26:21;99788.44;;;29.58;90.84
76358;BME280;65185;21.060;105.826;2023-08-07T12:28:48;99793.09;;;29.56;92.37
76358;BME280;65185;21.060;105.826;2023-08-07T12:31:15;99794.91;;;29.56;93.34
76358;BME280;65185;21.060;105.826;2023-08-07T12:33:43;99802.94;;;29.56;92.97
76358;BME280;65185;21.060;105.826;2023-08-07T12:36:10;99797.91;;;29.52;92.05
76358;BME280;65185;21.060;105.826;2023-08-07T12:38:39;99806.75;;;29.53;92.89
76358;BME280;65185;21.060;105.826;2023-08-07T12:41:06;99814.91;;;29.52;93.39
76358;BME280;65185;21.060;105.826;2023-08-07T12:43:33;99822.78;;;29.53;94.37
76358;BME280;65185;21.060;105.826;2023-08-07T12:45:59;99820.38;;;29.50;93.69
76358;BME280;65185;21.060;105.826;2023-08-07T12:48:27;99823.19;;;29.48;94.31